Terminal Aerodrome Forecast
Issued by NWS Louisville, KY

Home | Current Version | Previous Version | Text Only | Print | Product List | Glossary On
Versions: 1 2 3 4 5 6 7 8 9 10 11 12 13 14 15 16 17 18
784
FTUS43 KLMK 260711 AAA
TAFBWG
TAF AMD
KBWG 260711Z 2607/2706 21006KT P6SM FEW250
     FM261100 20006KT P6SM BKN040
     FM261500 22010KT P6SM BKN040 PROB30 2700/2706 VRB15G30KT 3SM
      TSRA BKN025CB=

USA.gov is the U.S. government's official web portal to all federal, state and local government web resources and services.